Flight Track Log - Related Links

Times and Time Zones

All times are in EST time to prevent confusion due to time zone crossing. See the UAL6025 flight status page for this flight to view local times or setup timezone preferences in your user account.

Time Position Orientation Groundspeed Altitude Reporting Facility
EST Latitude Longitude Course Direction KTS MPH feet Rate Location/Type
Fri 06:20:23 PM 38.9000 -77.4333 198° South 166 191 2,200  Level Potomac TRACON
Fri 06:22:23 PM 38.7833 -77.4833 198° South 240 276 5,300 1,733 Climbing Potomac TRACON
Fri 06:23:23 PM 38.7333 -77.5333 218° Southwest 254 292 7,400 1,780 Climbing Potomac TRACON
Fri 06:25:25 PM 38.6208 -77.6325 215° Southwest 256 295 10,700 1,541 Climbing Washington Center
Fri 06:26:26 PM 38.5511 -77.6917 214° Southwest 279 321 12,100 1,279 Climbing Washington Center
Fri 06:27:27 PM 38.4914 -77.7614 222° Southwest 293 337 13,300 1,210 Climbing Washington Center
Fri 06:28:25 PM 38.4439 -77.8503 236° Southwest 298 343 14,500 1,059 Climbing Washington Center
Fri 06:29:26 PM 38.3881 -77.9414 232° Southwest 303 349 15,400 1,190 Climbing Washington Center
Fri 06:30:26 PM 38.3508 -78.0300 242° Southwest 308 354 16,900 1,289 Climbing Washington Center
Fri 06:31:27 PM 38.2967 -78.1314 236° Southwest 316 364 18,000 1,261 Climbing Washington Center
Fri 06:32:25 PM 38.2486 -78.2225 236° Southwest 316 364 19,400 1,311 Climbing Washington Center
Fri 06:33:26 PM 38.1967 -78.3158 235° Southwest 322 371 20,600 1,180 Climbing Washington Center
Fri 06:34:27 PM 38.1486 -78.4117 237° Southwest 322 371 21,800 1,160 Climbing Washington Center
Fri 06:35:25 PM 38.1064 -78.5103 241° Southwest 322 371 22,900 1,119 Climbing Washington Center
Fri 06:36:25 PM 38.0772 -78.6017 248° West 317 365 24,000 1,190 Climbing Washington Center
Fri 06:37:26 PM 38.0408 -78.7136 248° West 317 365 25,300 1,230 Climbing Washington Center
Fri 06:38:27 PM 38.0047 -78.8147 246° West 317 365 26,500 1,160 Climbing Washington Center
Fri 06:39:25 PM 37.9731 -78.9108 247° West 312 359 27,600 1,119 Climbing Washington Center
Fri 06:40:25 PM 37.9392 -79.0069 246° West 312 359 28,700 1,140 Climbing Washington Center
Fri 06:41:26 PM 37.9094 -79.0897 246° West 306 352 29,900 1,150 Climbing Washington Center
Fri 06:42:25 PM 37.8694 -79.1772 240° Southwest 300 345 31,000 1,100 Climbing Washington Center
Fri 06:43:26 PM 37.8272 -79.2619 238° Southwest 294 338 32,100 1,091 Climbing Washington Center
Fri 06:44:26 PM 37.7850 -79.3467 238° Southwest 289 333 33,200 942 Climbing Washington Center
Fri 06:45:27 PM 37.7403 -79.4364 238° Southwest 289 333 34,000 403 Climbing Washington Center
Fri 06:46:25 PM 37.6983 -79.5131 235° Southwest 294 338 34,000  Level Washington Center
Fri 06:47:25 PM 37.6469 -79.6153 238° Southwest 314 361 34,000  Level Washington Center
Fri 06:48:27 PM 37.5956 -79.7175 238° Southwest 331 381 34,000  Level Washington Center
Fri 06:49:26 PM 37.5439 -79.8194 237° Southwest 342 394 34,000  Level Washington Center
Fri 06:50:27 PM 37.4900 -79.9289 238° Southwest 367 422 34,000  Level Washington Center
Fri 06:51:27 PM 37.4361 -80.0331 237° Southwest 367 422 34,000  Level Washington Center
Fri 06:52:27 PM 37.3842 -80.1372 238° Southwest 362 417 34,000  Level Washington Center
Fri 06:53:34 PM 37.3219 -80.2575 237° Southwest 344 396 34,000  Level Atlanta Center
Fri 06:54:34 PM 37.2689 -80.3592 237° Southwest 350 403 34,000  Level Atlanta Center
Fri 06:55:34 PM 37.2194 -80.4528 236° Southwest 350 403 34,000  Level Atlanta Center
Fri 06:56:34 PM 37.1681 -80.5539 237° Southwest 350 403 34,000  Level Atlanta Center
Fri 06:57:34 PM 37.1147 -80.6553 237° Southwest 350 403 34,000 -50 Level Atlanta Center
Fri 06:58:34 PM 37.0678 -80.7639 242° Southwest 350 403 33,900 -550 Descending Atlanta Center
Fri 06:59:34 PM 37.0267 -80.8747 245° Southwest 350 403 32,900 -950 Descending Atlanta Center
Fri 07:00:34 PM 36.9842 -81.0039 248° West 360 414 32,000 -450 Descending Atlanta Center
Fri 07:01:34 PM 36.9411 -81.1172 245° Southwest 360 414 32,000 800 Level Atlanta Center
Fri 07:02:34 PM 36.9019 -81.2250 246° West 360 414 33,600 1,000 Climbing Atlanta Center
Fri 07:03:34 PM 36.8644 -81.3250 245° Southwest 342 394 34,000 300 Climbing Atlanta Center
Fri 07:04:34 PM 36.8333 -81.4194 248° West 335 386 34,200 800 Climbing Atlanta Center
Fri 07:05:34 PM 36.7956 -81.5192 245° Southwest 325 374 35,600 900 Climbing Atlanta Center
Fri 07:06:34 PM 36.7603 -81.6239 247° West 313 360 36,000 200 Climbing Atlanta Center
Fri 07:07:34 PM 36.7247 -81.7258 247° West 313 360 36,000  Level Atlanta Center
Fri 07:08:34 PM 36.6850 -81.8333 245° Southwest 333 383 36,000  Level Atlanta Center
Fri 07:09:34 PM 36.6431 -81.9483 246° West 356 410 36,000  Level Atlanta Center
Fri 07:10:34 PM 36.5992 -82.0658 245° Southwest 368 423 36,000  Level Atlanta Center
Fri 07:11:34 PM 36.5553 -82.1883 246° West 375 432 36,000  Level Atlanta Center
Fri 07:12:34 PM 36.5069 -82.3083 243° Southwest 381 438 36,000  Level Atlanta Center
Fri 07:13:34 PM 36.4667 -82.4175 245° Southwest 386 444 36,000  Level Atlanta Center
Fri 07:14:34 PM 36.4203 -82.5422 245° Southwest 391 450 36,000  Level Atlanta Center
Fri 07:15:34 PM 36.3758 -82.6644 246° West 391 450 36,000  Level Atlanta Center
Fri 07:16:34 PM 36.3292 -82.7836 244° Southwest 391 450 36,000  Level Atlanta Center
Fri 07:17:34 PM 36.2825 -82.9056 245° Southwest 391 450 36,000  Level Atlanta Center
Fri 07:18:34 PM 36.2378 -83.0269 245° Southwest 391 450 36,000  Level Atlanta Center
Fri 07:19:34 PM 36.1906 -83.1461 244° Southwest 384 442 36,000  Level Atlanta Center
Fri 07:20:34 PM 36.1433 -83.2675 244° Southwest 389 448 36,000  Level Atlanta Center
Fri 07:21:34 PM 36.0983 -83.3886 245° Southwest 389 448 36,000  Level Atlanta Center
Fri 07:22:34 PM 36.0467 -83.5200 244° Southwest 383 441 36,000  Level Atlanta Center
Fri 07:23:34 PM 36.0033 -83.6408 246° West 389 448 36,000  Level Atlanta Center
Fri 07:24:34 PM 35.9600 -83.7617 246° West 389 448 36,000  Level Atlanta Center
Fri 07:25:34 PM 35.9142 -83.8822 245° Southwest 389 448 36,000  Level Atlanta Center
Fri 07:26:34 PM 35.8706 -84.0028 246° West 389 448 36,000  Level Atlanta Center
Fri 07:27:34 PM 35.8183 -84.1206 241° Southwest 389 448 36,000  Level Atlanta Center
Fri 07:28:34 PM 35.7619 -84.2306 238° Southwest 389 448 36,000  Level Atlanta Center
Fri 07:29:34 PM 35.6992 -84.3406 235° Southwest 389 448 36,000  Level Atlanta Center
Fri 07:30:34 PM 35.6319 -84.4450 232° Southwest 394 453 36,000  Level Atlanta Center
Fri 07:31:34 PM 35.5628 -84.5494 231° Southwest 394 453 36,000  Level Atlanta Center
Fri 07:32:34 PM 35.5103 -84.6486 237° Southwest 394 453 36,000  Level Atlanta Center
Fri 07:33:34 PM 35.5158 -84.7786 273° West 361 415 36,000  Level Atlanta Center
Fri 07:34:34 PM 35.5317 -84.9064 279° West 366 421 36,000  Level Atlanta Center
Fri 07:36:11 PM 35.5564 -85.1097 279° West 386 444 36,000  Level Memphis Center
Fri 07:37:12 PM 35.5725 -85.2439 278° West 391 450 36,000  Level Memphis Center
Fri 07:38:14 PM 35.5886 -85.3797 278° West 396 456 36,000  Level Memphis Center
Fri 07:39:16 PM 35.6072 -85.5397 278° West 395 455 36,000  Level Memphis Center
Fri 07:40:18 PM 35.6225 -85.6706 278° West 389 448 36,000  Level Memphis Center
Fri 07:41:20 PM 35.6378 -85.8053 278° West 393 452 36,000  Level Memphis Center
Fri 07:42:22 PM 35.6525 -85.9400 278° West 399 459 36,000  Level Memphis Center
Fri 07:43:24 PM 35.6681 -86.0786 278° West 403 464 36,000  Level Memphis Center
Fri 07:44:25 PM 35.6842 -86.2153 278° West 401 461 36,000  Level Memphis Center
Fri 07:45:27 PM 35.6983 -86.3553 277° West 405 466 36,000  Level Memphis Center
Fri 07:46:29 PM 35.7142 -86.4958 278° West 409 471 36,000  Level Memphis Center
Fri 07:47:31 PM 35.7311 -86.6606 277° West 410 472 36,000  Level Memphis Center
Fri 07:48:33 PM 35.7461 -86.8003 278° West 408 470 36,000  Level Memphis Center
Fri 07:49:35 PM 35.7614 -86.9381 278° West 404 465 36,000  Level Memphis Center
Fri 07:50:37 PM 35.7750 -87.0731 277° West 397 457 36,000  Level Memphis Center
Fri 07:51:39 PM 35.7889 -87.2083 277° West 393 452 36,000  Level Memphis Center
Fri 07:52:41 PM 35.8028 -87.3447 277° West 396 456 36,000  Level Memphis Center
Fri 07:53:42 PM 35.8169 -87.4819 277° West 398 458 36,000  Level Memphis Center
Fri 07:54:44 PM 35.8303 -87.6197 277° West 400 460 36,000  Level Memphis Center
Fri 07:55:46 PM 35.8436 -87.7575 277° West 401 461 36,000  Level Memphis Center
Fri 07:56:48 PM 35.8569 -87.8958 277° West 403 464 36,000  Level Memphis Center
Fri 07:57:50 PM 35.8719 -88.0497 277° West 388 447 36,000  Level Memphis Center
Fri 07:58:52 PM 35.8842 -88.1739 277° West 385 443 36,000  Level Memphis Center
Fri 07:59:54 PM 35.8958 -88.3025 276° West 380 437 36,000  Level Memphis Center
Fri 08:00:56 PM 35.9072 -88.4311 276° West 377 434 36,000  Level Memphis Center
Fri 08:01:58 PM 35.9186 -88.5606 276° West 378 435 36,000  Level Memphis Center
Fri 08:03:00 PM 35.9331 -88.7164 277° West 380 437 36,000  Level Memphis Center
Fri 08:04:02 PM 35.9433 -88.8475 276° West 382 440 36,000  Level Memphis Center
Fri 08:05:04 PM 35.9511 -88.9792 274° West 382 440 36,000  Level Memphis Center
Fri 08:06:05 PM 35.9594 -89.1122 274° West 385 443 36,000  Level Memphis Center
Fri 08:07:07 PM 35.9686 -89.2458 275° West 387 445 36,000  Level Memphis Center
Fri 08:08:09 PM 35.9761 -89.3803 274° West 389 448 36,000  Level Memphis Center
Fri 08:09:11 PM 35.9844 -89.5147 274° West 390 449 36,000  Level Memphis Center
Fri 08:10:13 PM 35.9928 -89.6492 274° West 390 449 36,000  Level Memphis Center
Fri 08:11:15 PM 36.0000 -89.7828 274° West 389 448 36,000  Level Memphis Center
Fri 08:12:16 PM 36.0094 -89.9447 274° West 391 450 36,000  Level Memphis Center
Fri 08:13:18 PM 36.0169 -90.0786 274° West 391 450 36,000  Level Memphis Center
Fri 08:14:20 PM 36.0236 -90.2117 274° West 390 449 36,000  Level Memphis Center
Fri 08:15:22 PM 36.0317 -90.3447 274° West 387 445 36,000  Level Memphis Center
Fri 08:16:23 PM 36.0389 -90.4786 274° West 389 448 36,000  Level Memphis Center
Fri 08:17:25 PM 36.0453 -90.6117 273° West 388 447 36,000  Level Memphis Center
Fri 08:18:27 PM 36.0522 -90.7419 274° West 383 441 36,000  Level Memphis Center
Fri 08:19:28 PM 36.0583 -90.8714 273° West 378 435 36,000  Level Memphis Center
Fri 08:20:30 PM 36.0656 -91.0264 273° West 377 434 36,000  Level Memphis Center
Fri 08:21:32 PM 36.0717 -91.1547 273° West 375 432 36,000  Level Memphis Center
Fri 08:22:34 PM 36.0781 -91.2808 274° West 371 427 36,000  Level Memphis Center
Fri 08:23:35 PM 36.0836 -91.4075 273° West 368 423 36,000  Level Memphis Center
Fri 08:24:37 PM 36.0889 -91.5317 273° West 364 419 36,000 -97 Level Memphis Center
Fri 08:25:39 PM 36.0925 -91.6564 272° West 364 419 35,800 -484 Descending Memphis Center
Fri 08:26:41 PM 36.0975 -91.7814 273° West 364 419 35,000 -683 Descending Memphis Center
Fri 08:27:42 PM 36.1031 -91.9097 273° West 368 423 34,400 -1,171 Descending Memphis Center
Fri 08:28:44 PM 36.1103 -92.0628 273° West 370 426 32,600 -1,597 Descending Memphis Center
Fri 08:29:46 PM 36.1158 -92.1894 273° West 372 428 31,100 -1,268 Descending Memphis Center
Fri 08:30:47 PM 36.1203 -92.3150 273° West 370 426 30,000 -780 Descending Memphis Center
Fri 08:31:49 PM 36.1250 -92.4436 273° West 373 429 29,500 -919 Descending Memphis Center
Fri 08:32:51 PM 36.1292 -92.5717 272° West 375 432 28,100 -1,415 Descending Memphis Center
Fri 08:33:52 PM 36.1344 -92.6978 273° West 373 429 26,600 -1,610 Descending Memphis Center
Fri 08:34:54 PM 36.1389 -92.8436 272° West 362 417 24,800 -1,258 Descending Memphis Center
Fri 08:35:56 PM 36.1425 -92.9617 272° West 354 407 24,000 -390 Descending Memphis Center
Fri 08:36:57 PM 36.1458 -93.0772 272° West 345 397 24,000  Level Memphis Center
Fri 08:37:59 PM 36.1483 -93.1939 272° West 342 394 24,000  Level Memphis Center
Fri 08:39:01 PM 36.1531 -93.3133 273° West 348 400 24,000  Level Memphis Center
Fri 08:40:02 PM 36.1558 -93.4361 272° West 355 409 24,000  Level Memphis Center
Fri 08:41:04 PM 36.1589 -93.5581 272° West 357 411 24,000 -242 Level Memphis Center
Fri 08:42:06 PM 36.1628 -93.7058 272° West 358 412 23,500 -488 Descending Memphis Center
Fri 08:43:07 PM 36.1664 -93.8267 272° West 357 411 23,000 -488 Descending Memphis Center
Fri 08:44:09 PM 36.1694 -93.9472 272° West 354 407 22,500 -532 Descending Memphis Center
Fri 08:45:11 PM 36.1708 -94.0683 271° West 348 400 21,900 -537 Descending Memphis Center
Fri 08:46:12 PM 36.1750 -94.1858 273° West 343 395 21,400 -488 Descending Memphis Center
Fri 08:47:14 PM 36.1753 -94.2992 270° West 333 383 20,900 -532 Descending Memphis Center
Fri 08:48:16 PM 36.1786 -94.4100 272° West 325 374 20,300 -645 Descending Memphis Center
Fri 08:48:47 PM 36.1819 -94.4783 273° West 325 374 19,900 -903 Descending Kansas City Center
Fri 08:49:49 PM 36.1844 -94.5969 272° West 338 389 18,900 -1,024 Descending Kansas City Center
Fri 08:50:50 PM 36.1853 -94.7158 271° West 344 396 17,800 -1,171 Descending Kansas City Center
Fri 08:51:52 PM 36.1867 -94.8297 271° West 335 386 16,500 -1,442 Descending Kansas City Center
Fri 08:53:24 PM 36.1892 -94.9983 271° West 307 353 14,100 -1,512 Descending Memphis Center
Fri 08:53:55 PM 36.1903 -95.0414 272° West 304 350 13,400 -1,600 Descending Kansas City Center
Fri 08:54:39 PM 36.1917 -95.1364 271° West 308 354 12,100 -1,839 Descending Kansas City Center
Fri 08:54:57 PM 36.1917 -95.1689 270° West 305 351 11,500 -1,475 Descending Kansas City Center
Fri 08:55:40 PM 36.1931 -95.2447 271° West 314 361 10,600 -1,161 Descending Kansas City Center
Fri 08:55:59 PM 36.1939 -95.2739 272° West 300 345 10,300 -1,000 Descending Kansas City Center
Fri 08:56:28 PM 36.1936 -95.3200 270° West 260 299 9,800 -1,377 Descending Kansas City Center
Fri 08:57:00 PM 36.1950 -95.3600 272° West 260 299 8,900 -1,672 Descending Kansas City Center
Fri 08:57:29 PM 36.1947 -95.4025 270° West 233 268 8,100 -1,548 Descending Kansas City Center
Fri 08:58:02 PM 36.1961 -95.4442 272° West 245 282 7,300 -1,254 Descending Kansas City Center
Fri 08:58:36 PM 36.1964 -95.4931 270° West 243 280 6,700 -1,258 Descending Kansas City Center
Fri 08:59:04 PM 36.1964 -95.5294 270° West 245 282 6,000 -1,500 Descending Kansas City Center
Fri 08:59:36 PM 36.1956 -95.5786 269° West 247 284 5,200 -1,377 Descending Kansas City Center
Fri 09:00:05 PM 36.1975 -95.6147 274° West 246 283 4,600 -1,180 Descending Kansas City Center
Fri 09:00:37 PM 36.1967 -95.6614 269° West 245 282 4,000 -1,065 Descending Kansas City Center
Fri 09:01:07 PM 36.1975 -95.6986 272° West 244 281 3,500 -1,180 Descending Kansas City Center
Fri 09:01:38 PM 36.1956 -95.7469 267° West 226 260 2,800 -968 Descending Kansas City Center
Fri 09:02:09 PM 36.1956 -95.7694 270° West 221 254 2,500 -1,000 Descending Kansas City Center
Fri 09:02:38 PM 36.1961 -95.8011 271° West 148 170 1,800 -1,082 Descending Kansas City Center
Fri 09:03:10 PM 36.1961 -95.8214 270° West 176 203 1,400 -787 Descending Kansas City Center
Fri 09:03:39 PM 36.1944 -95.8531 266° West 139 160 1,000 -581 Descending Kansas City Center
Fri 09:04:12 PM 36.1958 -95.8706 276° West 156 180 800 -364 Descending Kansas City Center

Login

Don't have an account? Register now (free) for customized features, flight alerts, and more!